This is the latest recevied weather packets stored in our database for station/object VE7GEL. If no packets are shown the sender has not sent any weather packets the latest 1 day(s).
| Time | Temp. | Humidity | Pressure | Rain* | Wind** | Luminosity | Snow |
|---|---|---|---|---|---|---|---|
| 1778078703 | 11.11° C | 90% | 1018.5 hPa | 0 mm | - | 18 W/m² | - |
| 1778077803 | 10.56° C | 91% | 1018.3 hPa | 0 mm | - | 16 W/m² | - |
| 1778077120 | 10.56° C | 91% | 1017.8 hPa | 0 mm | - | 14 W/m² | - |
| 1778076217 | 10.56° C | 91% | 1017.6 hPa | 0 mm | - | 10 W/m² | - |
| 1778073515 | 10.56° C | 92% | 1017.4 hPa | 0 mm | - | 7 W/m² | - |
| 1778073303 | 10.56° C | 93% | 1017.6 hPa | 0 mm | - | 6 W/m² | - |
| 1778072615 | 10.56° C | 93% | 1017.2 hPa | 0 mm | - | 3 W/m² | - |
| 1778069912 | 11.11° C | 91% | 1017 hPa | 0 mm | - | 0 W/m² | - |
| 1778069010 | 11.11° C | 91% | 1016.8 hPa | 0 mm | - | 0 W/m² | - |
| 1778068803 | 11.11° C | 91% | 1017.1 hPa | 0 mm | - | 0 W/m² | - |
| 1778068108 | 11.11° C | 90% | 1016.7 hPa | 0 mm | - | 0 W/m² | - |
| 1778067208 | 11.11° C | 90% | 1016.4 hPa | 0 mm | - | 0 W/m² | - |
| 1778064507 | 11.11° C | 90% | 1016 hPa | 0 mm | - | 0 W/m² | - |
| 1778061803 | 11.11° C | 89% | 1015.4 hPa | 0 mm | - | 0 W/m² | - |
| 1778060703 | 11.67° C | 88% | 1015.6 hPa | 0 mm | - | 0 W/m² | - |
| 1778060001 | 11.67° C | 88% | 1015.2 hPa | 0 mm | - | 0 W/m² | - |
| 1778059100 | 11.67° C | 89% | 1015.2 hPa | 0 mm | - | 0 W/m² | - |
| 1778058200 | 11.67° C | 88% | 1015.1 hPa | 0 mm | - | 0 W/m² | - |
| 1778053697 | 12.22° C | 86% | 1014.8 hPa | 0 mm | - | 0 W/m² | - |
| 1778052797 | 12.22° C | 85% | 1014.7 hPa | 0 mm | - | 0 W/m² | - |
| 1778051897 | 12.22° C | 85% | 1014.6 hPa | 0 mm | - | 0 W/m² | - |
| 1778051702 | 12.78° C | 85% | 1014.9 hPa | 0 mm | - | 0 W/m² | - |
| 1778047394 | 13.33° C | 81% | 1014 hPa | 0 mm | - | 0 W/m² | - |
| 1778046493 | 13.33° C | 78% | 1013.9 hPa | 0 mm | - | 0 W/m² | - |
| 1778044694 | 13.89° C | 76% | 1013.7 hPa | 0 mm | - | 0 W/m² | - |
* Rain latest hour (hover to see other rain measurements)
** Current wind speed in m/s (hover to see current wind gust speed)